This is the latest recevied weather packets stored in our database for station/object VU3IZK-13. If no packets are shown the sender has not sent any weather packets the latest 10 day(s).
| Time | Temp. | Humidity | Pressure | Rain* | Wind** | Luminosity | Snow |
|---|---|---|---|---|---|---|---|
| 1777617917 | 31.67° C | 52% | 0 hPa | 0 mm | - | - | - |
| 1777617013 | 31.11° C | 53% | 0 hPa | 0 mm | - | - | - |
| 1777616137 | 30.56° C | 56% | 0 hPa | 0 mm | - | - | - |
| 1777615236 | 30.56° C | 55% | 0 hPa | 0 mm | - | - | - |
| 1777613423 | 29.44° C | 58% | 0 hPa | 0 mm | - | - | - |
| 1777612525 | 29.44° C | 58% | 0 hPa | 0 mm | - | - | - |
| 1777611645 | 28.89° C | 60% | 0 hPa | 0 mm | - | - | - |
| 1777609826 | 28.33° C | 61% | 0 hPa | 0 mm | - | - | - |
| 1777608924 | 28.33° C | 57% | 0 hPa | 0 mm | - | - | - |
| 1777606227 | 27.22° C | 61% | 0 hPa | 0.25 mm | - | - | - |
| 1777605305 | 27.22° C | 65% | 0 hPa | 0.25 mm | - | - | - |
| 1777604406 | 26.11° C | 67% | 0 hPa | 0.25 mm | - | - | - |
| 1777603527 | 25.56° C | 73% | 0 hPa | 0.25 mm | - | - | - |
| 1777602619 | 25° C | 73% | 0 hPa | 42.16 mm | - | - | - |
| 1777585502 | 22.22° C | 80% | 0 hPa | 0 mm | - | - | - |
| 1777584644 | 22.22° C | 80% | 0 hPa | 0 mm | - | - | - |
| 1777583717 | 21.67° C | 80% | 0 hPa | 0 mm | - | - | - |
| 1777581939 | 22.78° C | 77% | 0 hPa | 0 mm | - | - | - |
| 1777581014 | 22.78° C | 76% | 0 hPa | 0 mm | - | - | - |
| 1777580114 | 22.78° C | 74% | 0 hPa | 0 mm | - | - | - |
| 1777579238 | 23.33° C | 75% | 0 hPa | 0 mm | - | - | - |
| 1777577418 | 22.78° C | 76% | 0 hPa | 0 mm | - | - | - |
| 1777576514 | 23.33° C | 75% | 0 hPa | 0 mm | - | - | - |
| 1777575635 | 23.33° C | 74% | 0 hPa | 0 mm | - | - | - |
| 1777572010 | 24.44° C | 66% | 0 hPa | 0 mm | - | - | - |
* Rain latest hour (hover to see other rain measurements)
** Current wind speed in m/s (hover to see current wind gust speed)